AIQ3420 VTCC-VTBD
Flight info
| Callsign | AIQ3420 |
|---|---|
| Flight time | 0h 53m |
| Altitude | 37000 |
| Route | PANTA2N PANTA Y7 BLAFF NAKON3A |
| Aircraft | A320/M-SDE3FGHIRWY/LB1 |
Departure
| Time | 2026-04-28 20:25 |
|---|---|
| Airport | Chiang Mai International Airport (VTCC) |
Arrival
| Time | 2026-04-28 21:19 |
|---|---|
| Airport | Don Mueang International Airport (VTBD) |
| Time | Latitude | Longitude | Altitude | Speed | Heading |
|---|---|---|---|---|---|
| 2026-04-28 19:52 | 18.76843 | 98.96730 | 1032 ft | 0 kts | 89° |
| 2026-04-28 20:16 | 18.76843 | 98.96724 | 1004 ft | 3 kts | 91° |
| 2026-04-28 20:16 | 18.76844 | 98.96710 | 1032 ft | 3 kts | 98° |
| 2026-04-28 20:16 | 18.76848 | 98.96689 | 1032 ft | 3 kts | 113° |
| 2026-04-28 20:16 | 18.76858 | 98.96671 | 1032 ft | 3 kts | 132° |
| 2026-04-28 20:17 | 18.76872 | 98.96657 | 1032 ft | 3 kts | 152° |
| 2026-04-28 20:17 | 18.76891 | 98.96649 | 1032 ft | 3 kts | 168° |
| 2026-04-28 20:17 | 18.76911 | 98.96647 | 1032 ft | 3 kts | 179° |
| 2026-04-28 20:17 | 18.76914 | 98.96646 | 1032 ft | 0 kts | 179° |
| 2026-04-28 20:19 | 18.76897 | 98.96647 | 1032 ft | 6 kts | 179° |
| 2026-04-28 20:19 | 18.76832 | 98.96647 | 1032 ft | 10 kts | 180° |
| 2026-04-28 20:20 | 18.76767 | 98.96647 | 1032 ft | 9 kts | 180° |
| 2026-04-28 20:20 | 18.76700 | 98.96646 | 1032 ft | 12 kts | 180° |
| 2026-04-28 20:20 | 18.76620 | 98.96646 | 1032 ft | 11 kts | 181° |
| 2026-04-28 20:20 | 18.76574 | 98.96603 | 1032 ft | 9 kts | 252° |
| 2026-04-28 20:21 | 18.76570 | 98.96545 | 1032 ft | 7 kts | 262° |
| 2026-04-28 20:21 | 18.76531 | 98.96516 | 1032 ft | 9 kts | 185° |
| 2026-04-28 20:21 | 18.76444 | 98.96517 | 1032 ft | 15 kts | 180° |
| 2026-04-28 20:21 | 18.76319 | 98.96516 | 1032 ft | 21 kts | 180° |
| 2026-04-28 20:22 | 18.76164 | 98.96516 | 1032 ft | 23 kts | 180° |
| 2026-04-28 20:22 | 18.75996 | 98.96515 | 1032 ft | 24 kts | 180° |
| 2026-04-28 20:22 | 18.75853 | 98.96515 | 1032 ft | 17 kts | 180° |
| 2026-04-28 20:22 | 18.75739 | 98.96515 | 1032 ft | 16 kts | 180° |
| 2026-04-28 20:23 | 18.75634 | 98.96515 | 1032 ft | 14 kts | 180° |
| 2026-04-28 20:23 | 18.75540 | 98.96511 | 1032 ft | 13 kts | 188° |
| 2026-04-28 20:23 | 18.75460 | 98.96477 | 1032 ft | 14 kts | 211° |
| 2026-04-28 20:23 | 18.75378 | 98.96426 | 1032 ft | 13 kts | 210° |
| 2026-04-28 20:24 | 18.75320 | 98.96369 | 1032 ft | 11 kts | 251° |
| 2026-04-28 20:24 | 18.75318 | 98.96305 | 1032 ft | 6 kts | 273° |
| 2026-04-28 20:24 | 18.75338 | 98.96285 | 1032 ft | 3 kts | 353° |
| 2026-04-28 20:24 | 18.75390 | 98.96285 | 1032 ft | 21 kts | 0° |
| 2026-04-28 20:25 | 18.75797 | 98.96286 | 1032 ft | 93 kts | 0° |
| 2026-04-28 20:25 | 18.76646 | 98.96288 | 1032 ft | 148 kts | 0° |
| 2026-04-28 20:25 | 18.77801 | 98.96286 | 1280 ft | 172 kts | 0° |
| 2026-04-28 20:25 | 18.78989 | 98.96286 | 2079 ft | 170 kts | 0° |
| 2026-04-28 20:26 | 18.80168 | 98.96290 | 2701 ft | 169 kts | 359° |
| 2026-04-28 20:26 | 18.81344 | 98.96295 | 3294 ft | 169 kts | 359° |
| 2026-04-28 20:26 | 18.82518 | 98.96300 | 3853 ft | 169 kts | 358° |
| 2026-04-28 20:26 | 18.83704 | 98.96305 | 4365 ft | 174 kts | 357° |
| 2026-04-28 20:27 | 18.84988 | 98.96320 | 4611 ft | 196 kts | 2° |
| 2026-04-28 20:27 | 18.86300 | 98.96927 | 4797 ft | 226 kts | 46° |
| 2026-04-28 20:27 | 18.87005 | 98.98477 | 5092 ft | 250 kts | 81° |
| 2026-04-28 20:27 | 18.87090 | 99.00399 | 5421 ft | 275 kts | 92° |
| 2026-04-28 20:28 | 18.86940 | 99.02466 | 5997 ft | 287 kts | 95° |
| 2026-04-28 20:28 | 18.86670 | 99.04569 | 6740 ft | 292 kts | 107° |
| 2026-04-28 20:28 | 18.85736 | 99.06470 | 7478 ft | 295 kts | 130° |
| 2026-04-28 20:28 | 18.84190 | 99.07886 | 8238 ft | 296 kts | 152° |
| 2026-04-28 20:29 | 18.82297 | 99.08742 | 9025 ft | 298 kts | 161° |
| 2026-04-28 20:29 | 18.80347 | 99.09520 | 9831 ft | 300 kts | 161° |
| 2026-04-28 20:29 | 18.78364 | 99.10299 | 10345 ft | 313 kts | 161° |
| 2026-04-28 20:29 | 18.76249 | 99.11125 | 10570 ft | 335 kts | 161° |
| 2026-04-28 20:30 | 18.74031 | 99.11996 | 11101 ft | 344 kts | 161° |
| 2026-04-28 20:30 | 18.71768 | 99.12888 | 11772 ft | 349 kts | 161° |
| 2026-04-28 20:30 | 18.69484 | 99.13791 | 12454 ft | 353 kts | 161° |
| 2026-04-28 20:30 | 18.67177 | 99.14705 | 13130 ft | 357 kts | 161° |
| 2026-04-28 20:31 | 18.64846 | 99.15632 | 13789 ft | 361 kts | 161° |
| 2026-04-28 20:31 | 18.62479 | 99.16573 | 14370 ft | 364 kts | 161° |
| 2026-04-28 20:31 | 18.60092 | 99.17518 | 14924 ft | 369 kts | 161° |
| 2026-04-28 20:31 | 18.57711 | 99.18461 | 15485 ft | 373 kts | 161° |
| 2026-04-28 20:32 | 18.55270 | 99.19428 | 16048 ft | 377 kts | 162° |
| 2026-04-28 20:32 | 18.52804 | 99.20404 | 16612 ft | 381 kts | 162° |
| 2026-04-28 20:32 | 18.50312 | 99.21389 | 17162 ft | 385 kts | 162° |
| 2026-04-28 20:32 | 18.47790 | 99.22385 | 17717 ft | 389 kts | 162° |
| 2026-04-28 20:33 | 18.45244 | 99.23389 | 18258 ft | 393 kts | 162° |
| 2026-04-28 20:33 | 18.42671 | 99.24406 | 18723 ft | 397 kts | 162° |
| 2026-04-28 20:33 | 18.40077 | 99.25431 | 19192 ft | 400 kts | 162° |
| 2026-04-28 20:33 | 18.37462 | 99.26462 | 19656 ft | 403 kts | 162° |
| 2026-04-28 20:34 | 18.34825 | 99.27504 | 20125 ft | 406 kts | 162° |
| 2026-04-28 20:34 | 18.32171 | 99.28554 | 20586 ft | 409 kts | 162° |
| 2026-04-28 20:34 | 18.29490 | 99.29613 | 21034 ft | 413 kts | 163° |
| 2026-04-28 20:34 | 18.26793 | 99.30675 | 21474 ft | 416 kts | 163° |
| 2026-04-28 20:35 | 18.24073 | 99.31744 | 21909 ft | 419 kts | 163° |
| 2026-04-28 20:35 | 18.21327 | 99.32791 | 22336 ft | 422 kts | 164° |
| 2026-04-28 20:35 | 18.18539 | 99.33769 | 22738 ft | 425 kts | 166° |
| 2026-04-28 20:35 | 18.15711 | 99.34701 | 23148 ft | 428 kts | 167° |
| 2026-04-28 20:36 | 18.12847 | 99.35621 | 23537 ft | 431 kts | 167° |
| 2026-04-28 20:36 | 18.09977 | 99.36543 | 23890 ft | 433 kts | 166° |
| 2026-04-28 20:36 | 18.07095 | 99.37478 | 24260 ft | 435 kts | 166° |
| 2026-04-28 20:36 | 18.04198 | 99.38431 | 24635 ft | 437 kts | 166° |
| 2026-04-28 20:37 | 18.01298 | 99.39400 | 24997 ft | 438 kts | 166° |
| 2026-04-28 20:37 | 17.98388 | 99.40379 | 25364 ft | 440 kts | 165° |
| 2026-04-28 20:37 | 17.95467 | 99.41363 | 25728 ft | 442 kts | 165° |
| 2026-04-28 20:37 | 17.92567 | 99.42337 | 26088 ft | 444 kts | 165° |
| 2026-04-28 20:38 | 17.89620 | 99.43321 | 26452 ft | 445 kts | 165° |
| 2026-04-28 20:38 | 17.86661 | 99.44303 | 26815 ft | 447 kts | 165° |
| 2026-04-28 20:38 | 17.83689 | 99.45288 | 27147 ft | 449 kts | 165° |
| 2026-04-28 20:38 | 17.80699 | 99.46280 | 27476 ft | 451 kts | 165° |
| 2026-04-28 20:39 | 17.77704 | 99.47278 | 27807 ft | 453 kts | 165° |
| 2026-04-28 20:39 | 17.74696 | 99.48283 | 28156 ft | 455 kts | 165° |
| 2026-04-28 20:39 | 17.71677 | 99.49292 | 28500 ft | 456 kts | 165° |
| 2026-04-28 20:39 | 17.68640 | 99.50306 | 28832 ft | 459 kts | 165° |
| 2026-04-28 20:40 | 17.65595 | 99.51323 | 29157 ft | 461 kts | 165° |
| 2026-04-28 20:40 | 17.62536 | 99.52342 | 29470 ft | 463 kts | 165° |
| 2026-04-28 20:40 | 17.59458 | 99.53365 | 29787 ft | 464 kts | 165° |
| 2026-04-28 20:40 | 17.56375 | 99.54391 | 30069 ft | 466 kts | 165° |
| 2026-04-28 20:41 | 17.53281 | 99.55421 | 30329 ft | 467 kts | 165° |
| 2026-04-28 20:41 | 17.50178 | 99.56453 | 30573 ft | 469 kts | 165° |
| 2026-04-28 20:41 | 17.47059 | 99.57487 | 30814 ft | 470 kts | 165° |
| 2026-04-28 20:41 | 17.43934 | 99.58521 | 31065 ft | 472 kts | 165° |
| 2026-04-28 20:42 | 17.40802 | 99.59562 | 31353 ft | 472 kts | 165° |
| 2026-04-28 20:42 | 17.37678 | 99.60600 | 31723 ft | 470 kts | 165° |
| 2026-04-28 20:42 | 17.34560 | 99.61637 | 32096 ft | 469 kts | 165° |
| 2026-04-28 20:42 | 17.31457 | 99.62666 | 32476 ft | 467 kts | 164° |
| 2026-04-28 20:43 | 17.28363 | 99.63685 | 32845 ft | 466 kts | 164° |
| 2026-04-28 20:43 | 17.25273 | 99.64704 | 33223 ft | 464 kts | 164° |
| 2026-04-28 20:43 | 17.22199 | 99.65719 | 33592 ft | 463 kts | 164° |
| 2026-04-28 20:43 | 17.19134 | 99.66733 | 33940 ft | 462 kts | 164° |
| 2026-04-28 20:44 | 17.16079 | 99.67749 | 34255 ft | 460 kts | 164° |
| 2026-04-28 20:44 | 17.13022 | 99.68765 | 34503 ft | 461 kts | 164° |
| 2026-04-28 20:44 | 17.09968 | 99.69777 | 34766 ft | 460 kts | 164° |
| 2026-04-28 20:44 | 17.06917 | 99.70784 | 35037 ft | 460 kts | 164° |
| 2026-04-28 20:45 | 17.03869 | 99.71787 | 35310 ft | 459 kts | 165° |
| 2026-04-28 20:45 | 17.00862 | 99.72774 | 35582 ft | 458 kts | 164° |
| 2026-04-28 20:45 | 16.97827 | 99.73772 | 35856 ft | 457 kts | 164° |
| 2026-04-28 20:45 | 16.94759 | 99.74783 | 36120 ft | 456 kts | 164° |
| 2026-04-28 20:46 | 16.91779 | 99.75767 | 36381 ft | 455 kts | 164° |
| 2026-04-28 20:46 | 16.88758 | 99.76765 | 36623 ft | 454 kts | 164° |
| 2026-04-28 20:46 | 16.85745 | 99.77760 | 36796 ft | 454 kts | 164° |
| 2026-04-28 20:47 | 16.79743 | 99.79743 | 36829 ft | 453 kts | 165° |
| 2026-04-28 20:47 | 16.73705 | 99.81731 | 36835 ft | 457 kts | 165° |
| 2026-04-28 20:48 | 16.67639 | 99.83727 | 36834 ft | 457 kts | 165° |
| 2026-04-28 20:48 | 16.61619 | 99.85703 | 36835 ft | 452 kts | 165° |
| 2026-04-28 20:49 | 16.55621 | 99.87679 | 36839 ft | 452 kts | 165° |
| 2026-04-28 20:49 | 16.49632 | 99.89657 | 36843 ft | 452 kts | 165° |
| 2026-04-28 20:50 | 16.43637 | 99.91631 | 36818 ft | 452 kts | 166° |
| 2026-04-28 20:50 | 16.37625 | 99.93599 | 36812 ft | 454 kts | 166° |
| 2026-04-28 20:51 | 16.31585 | 99.95577 | 36817 ft | 455 kts | 166° |
| 2026-04-28 20:51 | 16.25537 | 99.97566 | 36820 ft | 457 kts | 166° |
| 2026-04-28 20:52 | 16.19515 | 99.99561 | 36826 ft | 457 kts | 165° |
| 2026-04-28 20:52 | 16.13451 | 100.01572 | 36832 ft | 458 kts | 166° |
| 2026-04-28 20:53 | 16.04325 | 100.04574 | 36813 ft | 459 kts | 167° |
| 2026-04-28 20:53 | 16.01266 | 100.05578 | 36608 ft | 464 kts | 166° |
| 2026-04-28 20:53 | 15.98191 | 100.06589 | 36106 ft | 464 kts | 166° |
| 2026-04-28 20:54 | 15.95110 | 100.07606 | 35630 ft | 464 kts | 166° |
| 2026-04-28 20:54 | 15.92034 | 100.08622 | 35152 ft | 463 kts | 166° |
| 2026-04-28 20:54 | 15.88973 | 100.09631 | 34686 ft | 460 kts | 166° |
| 2026-04-28 20:54 | 15.85928 | 100.10634 | 34228 ft | 458 kts | 166° |
| 2026-04-28 20:55 | 15.82903 | 100.11631 | 33775 ft | 455 kts | 166° |
| 2026-04-28 20:55 | 15.79902 | 100.12619 | 33260 ft | 451 kts | 166° |
| 2026-04-28 20:55 | 15.76924 | 100.13596 | 32757 ft | 448 kts | 166° |
| 2026-04-28 20:55 | 15.73959 | 100.14567 | 32240 ft | 445 kts | 166° |
| 2026-04-28 20:56 | 15.71020 | 100.15530 | 31754 ft | 442 kts | 166° |
| 2026-04-28 20:56 | 15.68094 | 100.16492 | 31275 ft | 439 kts | 166° |
| 2026-04-28 20:56 | 15.65203 | 100.17442 | 30813 ft | 435 kts | 166° |
| 2026-04-28 20:56 | 15.62319 | 100.18387 | 30343 ft | 432 kts | 166° |
| 2026-04-28 20:57 | 15.59462 | 100.19323 | 29884 ft | 429 kts | 166° |
| 2026-04-28 20:57 | 15.56631 | 100.20254 | 29340 ft | 425 kts | 166° |
| 2026-04-28 20:57 | 15.53820 | 100.21176 | 28821 ft | 422 kts | 166° |
| 2026-04-28 20:57 | 15.51033 | 100.22091 | 28303 ft | 419 kts | 166° |
| 2026-04-28 20:58 | 15.48264 | 100.22997 | 27793 ft | 416 kts | 166° |
| 2026-04-28 20:58 | 15.45515 | 100.23892 | 27296 ft | 413 kts | 166° |
| 2026-04-28 20:58 | 15.42791 | 100.24781 | 26806 ft | 410 kts | 166° |
| 2026-04-28 20:58 | 15.40072 | 100.25671 | 26315 ft | 407 kts | 166° |
| 2026-04-28 20:59 | 15.37379 | 100.26550 | 25837 ft | 405 kts | 166° |
| 2026-04-28 20:59 | 15.34706 | 100.27423 | 25377 ft | 402 kts | 166° |
| 2026-04-28 20:59 | 15.32044 | 100.28293 | 24925 ft | 400 kts | 166° |
| 2026-04-28 20:59 | 15.29403 | 100.29157 | 24474 ft | 397 kts | 166° |
| 2026-04-28 21:00 | 15.26772 | 100.30027 | 24030 ft | 396 kts | 165° |
| 2026-04-28 21:00 | 15.24176 | 100.30961 | 23591 ft | 394 kts | 163° |
| 2026-04-28 21:00 | 15.21609 | 100.31948 | 23106 ft | 393 kts | 162° |
| 2026-04-28 21:00 | 15.19064 | 100.32961 | 22592 ft | 391 kts | 161° |
| 2026-04-28 21:01 | 15.16533 | 100.33977 | 22090 ft | 390 kts | 162° |
| 2026-04-28 21:01 | 15.14005 | 100.34980 | 21599 ft | 389 kts | 162° |
| 2026-04-28 21:01 | 15.11495 | 100.35963 | 21099 ft | 381 kts | 162° |
| 2026-04-28 21:01 | 15.09042 | 100.36916 | 20621 ft | 373 kts | 162° |
| 2026-04-28 21:02 | 15.06627 | 100.37844 | 20147 ft | 365 kts | 163° |
| 2026-04-28 21:02 | 15.04266 | 100.38745 | 19682 ft | 359 kts | 163° |
| 2026-04-28 21:02 | 15.01943 | 100.39634 | 19226 ft | 355 kts | 163° |
| 2026-04-28 21:02 | 14.99621 | 100.40523 | 18774 ft | 356 kts | 163° |
| 2026-04-28 21:03 | 14.97299 | 100.41415 | 18334 ft | 357 kts | 163° |
| 2026-04-28 21:03 | 14.94972 | 100.42310 | 17855 ft | 357 kts | 163° |
| 2026-04-28 21:03 | 14.92643 | 100.43207 | 17352 ft | 358 kts | 162° |
| 2026-04-28 21:03 | 14.90336 | 100.44095 | 16858 ft | 358 kts | 162° |
| 2026-04-28 21:04 | 14.87997 | 100.44994 | 16369 ft | 359 kts | 162° |
| 2026-04-28 21:04 | 14.85657 | 100.45894 | 15876 ft | 359 kts | 162° |
| 2026-04-28 21:04 | 14.83286 | 100.46805 | 15400 ft | 359 kts | 162° |
| 2026-04-28 21:04 | 14.80946 | 100.47702 | 14932 ft | 359 kts | 162° |
| 2026-04-28 21:05 | 14.78636 | 100.48585 | 14476 ft | 358 kts | 162° |
| 2026-04-28 21:05 | 14.76301 | 100.49478 | 14021 ft | 358 kts | 162° |
| 2026-04-28 21:05 | 14.73970 | 100.50372 | 13555 ft | 357 kts | 162° |
| 2026-04-28 21:05 | 14.71667 | 100.51258 | 13098 ft | 345 kts | 162° |
| 2026-04-28 21:06 | 14.69461 | 100.52074 | 12726 ft | 329 kts | 164° |
| 2026-04-28 21:06 | 14.67317 | 100.52750 | 12345 ft | 315 kts | 166° |
| 2026-04-28 21:06 | 14.65906 | 100.53152 | 12100 ft | 310 kts | 167° |
| 2026-04-28 21:06 | 14.63833 | 100.53717 | 11630 ft | 306 kts | 167° |
| 2026-04-28 21:07 | 14.61785 | 100.54268 | 11154 ft | 303 kts | 167° |
| 2026-04-28 21:07 | 14.59759 | 100.54821 | 10683 ft | 300 kts | 166° |
| 2026-04-28 21:07 | 14.57747 | 100.55379 | 10215 ft | 300 kts | 166° |
| 2026-04-28 21:07 | 14.55729 | 100.55946 | 9759 ft | 301 kts | 166° |
| 2026-04-28 21:08 | 14.53718 | 100.56514 | 9258 ft | 299 kts | 166° |
| 2026-04-28 21:08 | 14.51732 | 100.57078 | 9021 ft | 293 kts | 166° |
| 2026-04-28 21:08 | 14.49776 | 100.57637 | 8672 ft | 291 kts | 165° |
| 2026-04-28 21:08 | 14.47823 | 100.58194 | 8273 ft | 291 kts | 166° |
| 2026-04-28 21:09 | 14.45877 | 100.58749 | 7952 ft | 287 kts | 166° |
| 2026-04-28 21:09 | 14.43959 | 100.59299 | 7880 ft | 283 kts | 165° |
| 2026-04-28 21:09 | 14.42101 | 100.59833 | 7758 ft | 271 kts | 165° |
| 2026-04-28 21:09 | 14.40323 | 100.60345 | 7641 ft | 259 kts | 165° |
| 2026-04-28 21:10 | 14.38610 | 100.60838 | 7447 ft | 253 kts | 166° |
| 2026-04-28 21:10 | 14.36918 | 100.61322 | 7245 ft | 252 kts | 166° |
| 2026-04-28 21:10 | 14.35232 | 100.61802 | 7040 ft | 251 kts | 166° |
| 2026-04-28 21:10 | 14.33554 | 100.62278 | 6833 ft | 250 kts | 167° |
| 2026-04-28 21:11 | 14.31884 | 100.62754 | 6628 ft | 247 kts | 166° |
| 2026-04-28 21:11 | 14.30253 | 100.63220 | 6428 ft | 246 kts | 166° |
| 2026-04-28 21:11 | 14.28604 | 100.63690 | 6216 ft | 245 kts | 166° |
| 2026-04-28 21:11 | 14.26966 | 100.64154 | 6017 ft | 244 kts | 166° |
| 2026-04-28 21:12 | 14.25333 | 100.64618 | 5811 ft | 243 kts | 166° |
| 2026-04-28 21:12 | 14.23704 | 100.65080 | 5611 ft | 242 kts | 166° |
| 2026-04-28 21:12 | 14.22082 | 100.65540 | 5412 ft | 241 kts | 166° |
| 2026-04-28 21:12 | 14.20465 | 100.66000 | 5214 ft | 241 kts | 166° |
| 2026-04-28 21:13 | 14.18854 | 100.66461 | 5017 ft | 240 kts | 166° |
| 2026-04-28 21:13 | 14.17231 | 100.66923 | 4597 ft | 244 kts | 167° |
| 2026-04-28 21:13 | 14.15612 | 100.67383 | 4271 ft | 239 kts | 167° |
| 2026-04-28 21:13 | 14.14008 | 100.67837 | 3796 ft | 238 kts | 167° |
| 2026-04-28 21:14 | 14.12424 | 100.68288 | 3450 ft | 232 kts | 167° |
| 2026-04-28 21:14 | 14.10903 | 100.68725 | 3327 ft | 221 kts | 167° |
| 2026-04-28 21:14 | 14.09470 | 100.69137 | 3214 ft | 208 kts | 167° |
| 2026-04-28 21:14 | 14.08093 | 100.69439 | 3120 ft | 198 kts | 182° |
| 2026-04-28 21:15 | 14.06773 | 100.69171 | 2991 ft | 192 kts | 207° |
| 2026-04-28 21:15 | 14.05613 | 100.68533 | 2791 ft | 186 kts | 210° |
| 2026-04-28 21:15 | 14.04495 | 100.67901 | 2551 ft | 181 kts | 210° |
| 2026-04-28 21:15 | 14.03395 | 100.67281 | 2317 ft | 179 kts | 209° |
| 2026-04-28 21:16 | 14.02319 | 100.66676 | 2083 ft | 174 kts | 208° |
| 2026-04-28 21:16 | 14.01291 | 100.66098 | 1871 ft | 163 kts | 208° |
| 2026-04-28 21:16 | 14.00323 | 100.65555 | 1667 ft | 153 kts | 207° |
| 2026-04-28 21:16 | 13.99432 | 100.65054 | 1488 ft | 141 kts | 206° |
| 2026-04-28 21:17 | 13.98586 | 100.64579 | 1303 ft | 137 kts | 205° |
| 2026-04-28 21:17 | 13.97754 | 100.64113 | 1123 ft | 136 kts | 207° |
| 2026-04-28 21:17 | 13.96927 | 100.63661 | 900 ft | 138 kts | 206° |
| 2026-04-28 21:17 | 13.96070 | 100.63208 | 742 ft | 137 kts | 208° |
| 2026-04-28 21:18 | 13.95247 | 100.62718 | 627 ft | 135 kts | 209° |
| 2026-04-28 21:18 | 13.94414 | 100.62256 | 424 ft | 137 kts | 208° |
| 2026-04-28 21:18 | 13.93580 | 100.61781 | 287 ft | 136 kts | 210° |
| 2026-04-28 21:18 | 13.92757 | 100.61310 | 95 ft | 134 kts | 207° |
| 2026-04-28 21:19 | 13.91983 | 100.60874 | 18 ft | 113 kts | 209° |
| 2026-04-28 21:19 | 13.91527 | 100.60620 | 15 ft | 48 kts | 208° |
| 2026-04-28 21:19 | 13.91320 | 100.60504 | 16 ft | 24 kts | 208° |
| 2026-04-28 21:19 | 13.91206 | 100.60424 | 17 ft | 20 kts | 220° |
| 2026-04-28 21:20 | 13.91117 | 100.60322 | 17 ft | 14 kts | 239° |
| 2026-04-28 21:20 | 13.91093 | 100.60251 | 17 ft | 9 kts | 279° |
| 2026-04-28 21:20 | 13.91140 | 100.60220 | 17 ft | 10 kts | 3° |
| 2026-04-28 21:20 | 13.91235 | 100.60265 | 18 ft | 18 kts | 28° |
| 2026-04-28 21:21 | 13.91339 | 100.60324 | 17 ft | 16 kts | 28° |
| 2026-04-28 21:21 | 13.91437 | 100.60379 | 17 ft | 17 kts | 28° |
| 2026-04-28 21:21 | 13.91547 | 100.60441 | 17 ft | 18 kts | 28° |
| 2026-04-28 21:21 | 13.91649 | 100.60498 | 17 ft | 16 kts | 28° |
| 2026-04-28 21:22 | 13.91757 | 100.60558 | 17 ft | 19 kts | 28° |
| 2026-04-28 21:22 | 13.91868 | 100.60621 | 17 ft | 17 kts | 28° |
| 2026-04-28 21:22 | 13.91967 | 100.60677 | 18 ft | 15 kts | 28° |
| 2026-04-28 21:22 | 13.92028 | 100.60710 | 18 ft | 14 kts | 28° |
| 2026-04-28 21:23 | 13.92098 | 100.60692 | 18 ft | 8 kts | 303° |
| 2026-04-28 21:23 | 13.92122 | 100.60642 | 18 ft | 7 kts | 296° |
| 2026-04-28 21:23 | 13.92145 | 100.60597 | 20 ft | 8 kts | 298° |
| 2026-04-28 21:23 | 13.92183 | 100.60564 | 17 ft | 7 kts | 341° |
| 2026-04-28 21:24 | 13.92227 | 100.60577 | 17 ft | 8 kts | 31° |
| 2026-04-28 21:24 | 13.92287 | 100.60614 | 17 ft | 11 kts | 28° |
| 2026-04-28 21:24 | 13.92354 | 100.60650 | 19 ft | 11 kts | 28° |
| 2026-04-28 21:24 | 13.92390 | 100.60687 | 19 ft | 6 kts | 81° |
| 2026-04-28 21:25 | 13.92373 | 100.60721 | 18 ft | 5 kts | 122° |
| 2026-04-28 21:25 | 13.92364 | 100.60739 | 18 ft | 2 kts | 118° |
| 2026-04-28 21:25 | 13.92361 | 100.60744 | 18 ft | 0 kts | 118° |